PWSweather.com
Personal Weather Stations
Station Observations
IBOURGOG6
IsSurTilleFR

IsSurTilleFR

Lat: 47.521958, Lon: 5.112544000000071

Elevation: 902

Station Type: WMR200

http://meteotille.tbdt.fr

High Low Average
Temperature 73.6°F23.1°F 44.1°F6.7°F 57.2°F14.0°F
Dew Point 51.1°F10.6°F 38.9°F3.8°F 45.1°F7.3°F
Winds Calm Calm Calm Calm Calm Calm
Wind Gusts -- -- --
Humidity 83% 40% 67%
Pressure 29.18 in988.10 in 29.09 in985.10 in -
Precipitation 0.00 in0.00 in - -
Hour Temp Dew Point Humidity Winds Wind Gusts Pressure Precip Precip Rate Daily Precip Total
12:00 AM 49.3°F9.6°C 43.0°F6.1°C 79% Calm Calm -- 29.09 in985.1 mb 0.00 in0.0 mm 0.00 in0.0 mm 0.00 in0.0 mm
12:10 AM 49.1°F9.5°C 42.9°F6.1°C 79% Calm Calm -- 29.09 in985.1 mb 0.00 in0.0 mm 0.00 in0.0 mm 0.00 in0.0 mm
12:20 AM 48.7°F9.3°C 42.5°F5.8°C 79% Calm Calm -- 29.09 in985.1 mb 0.00 in0.0 mm 0.00 in0.0 mm 0.00 in0.0 mm
12:30 AM 48.7°F9.3°C 42.8°F6.0°C 80% Calm Calm -- 29.09 in985.1 mb 0.00 in0.0 mm 0.00 in0.0 mm 0.00 in0.0 mm
12:40 AM 48.6°F9.2°C 43.0°F6.1°C 81% Calm Calm -- 29.09 in985.1 mb 0.00 in0.0 mm 0.00 in0.0 mm 0.00 in0.0 mm
12:50 AM 48.6°F9.2°C 43.0°F6.1°C 81% Calm Calm -- 29.09 in985.1 mb 0.00 in0.0 mm 0.00 in0.0 mm 0.00 in0.0 mm
01:00 AM 48.6°F9.2°C 42.7°F5.9°C 80% Calm Calm -- 29.09 in985.1 mb 0.00 in0.0 mm 0.00 in0.0 mm 0.00 in0.0 mm
01:10 AM 48.4°F9.1°C 42.2°F5.7°C 79% Calm Calm -- 29.09 in985.1 mb 0.00 in0.0 mm 0.00 in0.0 mm 0.00 in0.0 mm
01:20 AM 47.7°F8.7°C 41.5°F5.3°C 79% Calm Calm -- 29.09 in985.1 mb 0.00 in0.0 mm 0.00 in0.0 mm 0.00 in0.0 mm
01:30 AM 47.5°F8.6°C 41.6°F5.3°C 80% Calm Calm -- 29.09 in985.1 mb 0.00 in0.0 mm 0.00 in0.0 mm 0.00 in0.0 mm
01:40 AM 47.5°F8.6°C 41.9°F5.5°C 81% Calm Calm -- 29.09 in985.1 mb 0.00 in0.0 mm 0.00 in0.0 mm 0.00 in0.0 mm
01:50 AM 47.5°F8.6°C 41.9°F5.5°C 81% Calm Calm -- 29.09 in985.1 mb 0.00 in0.0 mm 0.00 in0.0 mm 0.00 in0.0 mm
02:00 AM 47.3°F8.5°C 41.4°F5.2°C 80% Calm Calm -- 29.09 in985.1 mb 0.00 in0.0 mm 0.00 in0.0 mm 0.00 in0.0 mm
02:10 AM 47.3°F8.5°C 41.8°F5.4°C 81% Calm Calm -- 29.09 in985.1 mb 0.00 in0.0 mm 0.00 in0.0 mm 0.00 in0.0 mm
02:20 AM 47.1°F8.4°C 41.6°F5.3°C 81% Calm Calm -- 29.09 in985.1 mb 0.00 in0.0 mm 0.00 in0.0 mm 0.00 in0.0 mm
02:30 AM 47.1°F8.4°C 41.6°F5.3°C 81% Calm Calm -- 29.09 in985.1 mb 0.00 in0.0 mm 0.00 in0.0 mm 0.00 in0.0 mm
02:40 AM 46.8°F8.2°C 41.2°F5.1°C 81% Calm Calm -- 29.09 in985.1 mb 0.00 in0.0 mm 0.00 in0.0 mm 0.00 in0.0 mm
02:50 AM 46.9°F8.3°C 41.4°F5.2°C 81% Calm Calm -- 29.09 in985.1 mb 0.00 in0.0 mm 0.00 in0.0 mm 0.00 in0.0 mm
03:00 AM 46.9°F8.3°C 41.4°F5.2°C 81% Calm Calm -- 29.09 in985.1 mb 0.00 in0.0 mm 0.00 in0.0 mm 0.00 in0.0 mm
03:10 AM 46.9°F8.3°C 41.4°F5.2°C 81% Calm Calm -- 29.09 in985.1 mb 0.00 in0.0 mm 0.00 in0.0 mm 0.00 in0.0 mm
03:20 AM 46.9°F8.3°C 41.4°F5.2°C 81% Calm Calm -- 29.09 in985.1 mb 0.00 in0.0 mm 0.00 in0.0 mm 0.00 in0.0 mm
03:30 AM 46.8°F8.2°C 40.9°F4.9°C 80% Calm Calm -- 29.09 in985.1 mb 0.00 in0.0 mm 0.00 in0.0 mm 0.00 in0.0 mm
03:40 AM 46.6°F8.1°C 40.7°F4.8°C 80% Calm Calm -- 29.09 in985.1 mb 0.00 in0.0 mm 0.00 in0.0 mm 0.00 in0.0 mm
03:50 AM 46.2°F7.9°C 40.4°F4.7°C 80% Calm Calm -- 29.12 in986.1 mb 0.00 in0.0 mm 0.00 in0.0 mm 0.00 in0.0 mm
04:00 AM 45.9°F7.7°C 40.4°F4.7°C 81% Calm Calm -- 29.09 in985.1 mb 0.00 in0.0 mm 0.00 in0.0 mm 0.00 in0.0 mm
04:10 AM 45.5°F7.5°C 39.7°F4.3°C 80% Calm Calm -- 29.09 in985.1 mb 0.00 in0.0 mm 0.00 in0.0 mm 0.00 in0.0 mm
04:20 AM 45.5°F7.5°C 40.0°F4.4°C 81% Calm Calm -- 29.12 in986.1 mb 0.00 in0.0 mm 0.00 in0.0 mm 0.00 in0.0 mm
04:30 AM 45.5°F7.5°C 40.0°F4.4°C 81% Calm Calm -- 29.09 in985.1 mb 0.00 in0.0 mm 0.00 in0.0 mm 0.00 in0.0 mm
04:40 AM 45.1°F7.3°C 39.7°F4.3°C 81% Calm Calm -- 29.09 in985.1 mb 0.00 in0.0 mm 0.00 in0.0 mm 0.00 in0.0 mm
04:50 AM 45.0°F7.2°C 39.5°F4.2°C 81% Calm Calm -- 29.09 in985.1 mb 0.00 in0.0 mm 0.00 in0.0 mm 0.00 in0.0 mm
05:00 AM 44.6°F7.0°C 39.4°F4.1°C 82% Calm Calm -- 29.09 in985.1 mb 0.00 in0.0 mm 0.00 in0.0 mm 0.00 in0.0 mm
05:10 AM 45.0°F7.2°C 39.8°F4.3°C 82% Calm Calm -- 29.09 in985.1 mb 0.00 in0.0 mm 0.00 in0.0 mm 0.00 in0.0 mm
05:20 AM 45.1°F7.3°C 40.3°F4.6°C 83% Calm Calm -- 29.09 in985.1 mb 0.00 in0.0 mm 0.00 in0.0 mm 0.00 in0.0 mm
05:30 AM 44.8°F7.1°C 39.6°F4.2°C 82% Calm Calm -- 29.09 in985.1 mb 0.00 in0.0 mm 0.00 in0.0 mm 0.00 in0.0 mm
05:40 AM 44.6°F7.0°C 39.1°F3.9°C 81% Calm Calm -- 29.09 in985.1 mb 0.00 in0.0 mm 0.00 in0.0 mm 0.00 in0.0 mm
05:50 AM 44.6°F7.0°C 39.4°F4.1°C 82% Calm Calm -- 29.09 in985.1 mb 0.00 in0.0 mm 0.00 in0.0 mm 0.00 in0.0 mm
06:00 AM 44.4°F6.9°C 39.3°F4.1°C 82% Calm Calm -- 29.12 in986.1 mb 0.00 in0.0 mm 0.00 in0.0 mm 0.00 in0.0 mm
06:10 AM 44.4°F6.9°C 39.3°F4.1°C 82% Calm Calm -- 29.12 in986.1 mb 0.00 in0.0 mm 0.00 in0.0 mm 0.00 in0.0 mm
06:20 AM 44.1°F6.7°C 38.9°F3.8°C 82% Calm Calm -- 29.09 in985.1 mb 0.00 in0.0 mm 0.00 in0.0 mm 0.00 in0.0 mm
06:30 AM 44.2°F6.8°C 39.4°F4.1°C 83% Calm Calm -- 29.09 in985.1 mb 0.00 in0.0 mm 0.00 in0.0 mm 0.00 in0.0 mm
06:40 AM 44.8°F7.1°C 39.9°F4.4°C 83% Calm Calm -- 29.09 in985.1 mb 0.00 in0.0 mm 0.00 in0.0 mm 0.00 in0.0 mm
06:50 AM 45.0°F7.2°C 39.8°F4.3°C 82% Calm Calm -- 29.09 in985.1 mb 0.00 in0.0 mm 0.00 in0.0 mm 0.00 in0.0 mm
07:00 AM 45.3°F7.4°C 39.8°F4.3°C 81% Calm Calm -- 29.09 in985.1 mb 0.00 in0.0 mm 0.00 in0.0 mm 0.00 in0.0 mm
07:10 AM 45.1°F7.3°C 39.3°F4.1°C 80% Calm Calm -- 29.09 in985.1 mb 0.00 in0.0 mm 0.00 in0.0 mm 0.00 in0.0 mm
07:20 AM 45.1°F7.3°C 39.3°F4.1°C 80% Calm Calm -- 29.09 in985.1 mb 0.00 in0.0 mm 0.00 in0.0 mm 0.00 in0.0 mm
07:30 AM 45.3°F7.4°C 39.8°F4.3°C 81% Calm Calm -- 29.09 in985.1 mb 0.00 in0.0 mm 0.00 in0.0 mm 0.00 in0.0 mm
07:40 AM 45.5°F7.5°C 40.3°F4.6°C 82% Calm Calm -- 29.09 in985.1 mb 0.00 in0.0 mm 0.00 in0.0 mm 0.00 in0.0 mm
07:50 AM 46.0°F7.8°C 40.9°F4.9°C 82% Calm Calm -- 29.09 in985.1 mb 0.00 in0.0 mm 0.00 in0.0 mm 0.00 in0.0 mm
08:00 AM 46.6°F8.1°C 41.7°F5.4°C 83% Calm Calm -- 29.09 in985.1 mb 0.00 in0.0 mm 0.00 in0.0 mm 0.00 in0.0 mm
08:10 AM 47.3°F8.5°C 42.4°F5.8°C 83% Calm Calm -- 29.09 in985.1 mb 0.00 in0.0 mm 0.00 in0.0 mm 0.00 in0.0 mm
08:20 AM 47.8°F8.8°C 42.9°F6.1°C 83% Calm Calm -- 29.12 in986.1 mb 0.00 in0.0 mm 0.00 in0.0 mm 0.00 in0.0 mm
08:30 AM 48.4°F9.1°C 43.5°F6.4°C 83% Calm Calm -- 29.09 in985.1 mb 0.00 in0.0 mm 0.00 in0.0 mm 0.00 in0.0 mm
08:40 AM 49.1°F9.5°C 44.2°F6.8°C 83% Calm Calm -- 29.09 in985.1 mb 0.00 in0.0 mm 0.00 in0.0 mm 0.00 in0.0 mm
08:50 AM 49.6°F9.8°C 44.7°F7.1°C 83% Calm Calm -- 29.12 in986.1 mb 0.00 in0.0 mm 0.00 in0.0 mm 0.00 in0.0 mm
09:00 AM 50.4°F10.2°C 45.1°F7.3°C 82% Calm Calm -- 29.12 in986.1 mb 0.00 in0.0 mm 0.00 in0.0 mm 0.00 in0.0 mm
09:10 AM 51.1°F10.6°C 45.8°F7.7°C 82% Calm Calm -- 29.12 in986.1 mb 0.00 in0.0 mm 0.00 in0.0 mm 0.00 in0.0 mm
09:20 AM 51.8°F11.0°C 46.2°F7.9°C 81% Calm Calm -- 29.12 in986.1 mb 0.00 in0.0 mm 0.00 in0.0 mm 0.00 in0.0 mm
09:30 AM 52.7°F11.5°C 47.0°F8.3°C 81% Calm Calm -- 29.12 in986.1 mb 0.00 in0.0 mm 0.00 in0.0 mm 0.00 in0.0 mm
09:40 AM 53.8°F12.1°C 47.8°F8.8°C 80% Calm Calm -- 29.12 in986.1 mb 0.00 in0.0 mm 0.00 in0.0 mm 0.00 in0.0 mm
09:50 AM 54.5°F12.5°C 48.5°F9.2°C 80% Calm Calm -- 29.12 in986.1 mb 0.00 in0.0 mm 0.00 in0.0 mm 0.00 in0.0 mm
10:00 AM 55.6°F13.1°C 48.8°F9.3°C 78% Calm Calm -- 29.12 in986.1 mb 0.00 in0.0 mm 0.00 in0.0 mm 0.00 in0.0 mm
10:10 AM 56.7°F13.7°C 49.9°F9.9°C 78% Calm Calm -- 29.12 in986.1 mb 0.00 in0.0 mm 0.00 in0.0 mm 0.00 in0.0 mm
10:20 AM 57.9°F14.4°C 50.0°F10.0°C 75% Calm Calm -- 29.12 in986.1 mb 0.00 in0.0 mm 0.00 in0.0 mm 0.00 in0.0 mm
10:30 AM 58.8°F14.9°C 50.5°F10.3°C 74% Calm Calm -- 29.12 in986.1 mb 0.00 in0.0 mm 0.00 in0.0 mm 0.00 in0.0 mm
10:40 AM 60.1°F15.6°C 50.6°F10.3°C 71% Calm Calm -- 29.12 in986.1 mb 0.00 in0.0 mm 0.00 in0.0 mm 0.00 in0.0 mm
10:50 AM 61.0°F16.1°C 51.1°F10.6°C 70% Calm Calm -- 29.12 in986.1 mb 0.00 in0.0 mm 0.00 in0.0 mm 0.00 in0.0 mm
11:00 AM 61.5°F16.4°C 50.1°F10.1°C 66% Calm Calm -- 29.12 in986.1 mb 0.00 in0.0 mm 0.00 in0.0 mm 0.00 in0.0 mm
11:10 AM 62.4°F16.9°C 50.9°F10.5°C 66% Calm Calm -- 29.12 in986.1 mb 0.00 in0.0 mm 0.00 in0.0 mm 0.00 in0.0 mm
11:20 AM 63.3°F17.4°C 50.9°F10.5°C 64% Calm Calm -- 29.12 in986.1 mb 0.00 in0.0 mm 0.00 in0.0 mm 0.00 in0.0 mm
11:30 AM 63.9°F17.7°C 50.1°F10.1°C 61% Calm Calm -- 29.12 in986.1 mb 0.00 in0.0 mm 0.00 in0.0 mm 0.00 in0.0 mm
11:40 AM 64.4°F18.0°C 49.8°F9.9°C 59% Calm Calm -- 29.12 in986.1 mb 0.00 in0.0 mm 0.00 in0.0 mm 0.00 in0.0 mm
11:50 AM 65.5°F18.6°C 50.8°F10.4°C 59% Calm Calm -- 29.12 in986.1 mb 0.00 in0.0 mm 0.00 in0.0 mm 0.00 in0.0 mm
12:00 PM 66.4°F19.1°C 49.7°F9.8°C 55% Calm Calm -- 29.12 in986.1 mb 0.00 in0.0 mm 0.00 in0.0 mm 0.00 in0.0 mm
12:10 PM 67.1°F19.5°C 49.4°F9.7°C 53% Calm Calm -- 29.12 in986.1 mb 0.00 in0.0 mm 0.00 in0.0 mm 0.00 in0.0 mm
12:20 PM 67.8°F19.9°C 49.0°F9.4°C 51% Calm Calm -- 29.12 in986.1 mb 0.00 in0.0 mm 0.00 in0.0 mm 0.00 in0.0 mm
12:30 PM 69.3°F20.7°C 49.8°F9.9°C 50% Calm Calm -- 29.12 in986.1 mb 0.00 in0.0 mm 0.00 in0.0 mm 0.00 in0.0 mm
12:40 PM 69.4°F20.8°C 48.9°F9.4°C 48% Calm Calm -- 29.12 in986.1 mb 0.00 in0.0 mm 0.00 in0.0 mm 0.00 in0.0 mm
12:50 PM 70.3°F21.3°C 49.1°F9.5°C 47% Calm Calm -- 29.12 in986.1 mb 0.00 in0.0 mm 0.00 in0.0 mm 0.00 in0.0 mm
01:00 PM 70.7°F21.5°C 48.9°F9.4°C 46% Calm Calm -- 29.12 in986.1 mb 0.00 in0.0 mm 0.00 in0.0 mm 0.00 in0.0 mm
01:10 PM 71.8°F22.1°C 49.3°F9.6°C 45% Calm Calm -- 29.12 in986.1 mb 0.00 in0.0 mm 0.00 in0.0 mm 0.00 in0.0 mm
01:20 PM 72.3°F22.4°C 49.2°F9.6°C 44% Calm Calm -- 29.12 in986.1 mb 0.00 in0.0 mm 0.00 in0.0 mm 0.00 in0.0 mm
01:30 PM 72.3°F22.4°C 48.6°F9.2°C 43% Calm Calm -- 29.12 in986.1 mb 0.00 in0.0 mm 0.00 in0.0 mm 0.00 in0.0 mm
01:40 PM 73.6°F23.1°C 49.7°F9.8°C 43% Calm Calm -- 29.12 in986.1 mb 0.00 in0.0 mm 0.00 in0.0 mm 0.00 in0.0 mm
01:50 PM 73.6°F23.1°C 49.1°F9.5°C 42% Calm Calm -- 29.09 in985.1 mb 0.00 in0.0 mm 0.00 in0.0 mm 0.00 in0.0 mm
02:00 PM 73.6°F23.1°C 49.1°F9.5°C 42% Calm Calm -- 29.09 in985.1 mb 0.00 in0.0 mm 0.00 in0.0 mm 0.00 in0.0 mm
02:10 PM 73.6°F23.1°C 49.1°F9.5°C 42% Calm Calm -- 29.09 in985.1 mb 0.00 in0.0 mm 0.00 in0.0 mm 0.00 in0.0 mm
02:20 PM 72.7°F22.6°C 48.3°F9.1°C 42% Calm Calm -- 29.12 in986.1 mb 0.00 in0.0 mm 0.00 in0.0 mm 0.00 in0.0 mm
02:30 PM 71.8°F22.1°C 48.1°F8.9°C 43% Calm Calm -- 29.09 in985.1 mb 0.00 in0.0 mm 0.00 in0.0 mm 0.00 in0.0 mm
02:40 PM 71.1°F21.7°C 47.4°F8.6°C 43% Calm Calm -- 29.09 in985.1 mb 0.00 in0.0 mm 0.00 in0.0 mm 0.00 in0.0 mm
02:50 PM 70.9°F21.6°C 47.3°F8.5°C 43% Calm Calm -- 29.12 in986.1 mb 0.00 in0.0 mm 0.00 in0.0 mm 0.00 in0.0 mm
03:00 PM 70.9°F21.6°C 47.3°F8.5°C 43% Calm Calm -- 29.09 in985.1 mb 0.00 in0.0 mm 0.00 in0.0 mm 0.00 in0.0 mm
03:10 PM 70.7°F21.5°C 46.5°F8.1°C 42% Calm Calm -- 29.09 in985.1 mb 0.00 in0.0 mm 0.00 in0.0 mm 0.00 in0.0 mm
03:20 PM 70.5°F21.4°C 46.9°F8.3°C 43% Calm Calm -- 29.09 in985.1 mb 0.00 in0.0 mm 0.00 in0.0 mm 0.00 in0.0 mm
03:30 PM 70.3°F21.3°C 44.9°F7.2°C 40% Calm Calm -- 29.09 in985.1 mb 0.00 in0.0 mm 0.00 in0.0 mm 0.00 in0.0 mm
03:40 PM 70.5°F21.4°C 46.3°F7.9°C 42% Calm Calm -- 29.09 in985.1 mb 0.00 in0.0 mm 0.00 in0.0 mm 0.00 in0.0 mm
03:50 PM 70.5°F21.4°C 45.7°F7.6°C 41% Calm Calm -- 29.09 in985.1 mb 0.00 in0.0 mm 0.00 in0.0 mm 0.00 in0.0 mm
04:00 PM 70.3°F21.3°C 44.9°F7.2°C 40% Calm Calm -- 29.09 in985.1 mb 0.00 in0.0 mm 0.00 in0.0 mm 0.00 in0.0 mm
04:10 PM 70.2°F21.2°C 44.7°F7.1°C 40% Calm Calm -- 29.09 in985.1 mb 0.00 in0.0 mm 0.00 in0.0 mm 0.00 in0.0 mm
04:20 PM 70.0°F21.1°C 44.5°F6.9°C 40% Calm Calm -- 29.09 in985.1 mb 0.00 in0.0 mm 0.00 in0.0 mm 0.00 in0.0 mm
04:30 PM 69.8°F21.0°C 44.4°F6.9°C 40% Calm Calm -- 29.12 in986.1 mb 0.00 in0.0 mm 0.00 in0.0 mm 0.00 in0.0 mm
04:40 PM 69.6°F20.9°C 44.2°F6.8°C 40% Calm Calm -- 29.12 in986.1 mb 0.00 in0.0 mm 0.00 in0.0 mm 0.00 in0.0 mm
04:50 PM 69.4°F20.8°C 44.1°F6.7°C 40% Calm Calm -- 29.12 in986.1 mb 0.00 in0.0 mm 0.00 in0.0 mm 0.00 in0.0 mm
05:00 PM 69.3°F20.7°C 44.5°F6.9°C 41% Calm Calm -- 29.12 in986.1 mb 0.00 in0.0 mm 0.00 in0.0 mm 0.00 in0.0 mm
05:10 PM 69.1°F20.6°C 43.7°F6.5°C 40% Calm Calm -- 29.12 in986.1 mb 0.00 in0.0 mm 0.00 in0.0 mm 0.00 in0.0 mm
05:20 PM 68.9°F20.5°C 44.2°F6.8°C 41% Calm Calm -- 29.12 in986.1 mb 0.00 in0.0 mm 0.00 in0.0 mm 0.00 in0.0 mm
05:30 PM 68.7°F20.4°C 44.1°F6.7°C 41% Calm Calm -- 29.12 in986.1 mb 0.00 in0.0 mm 0.00 in0.0 mm 0.00 in0.0 mm
05:40 PM 68.5°F20.3°C 43.9°F6.6°C 41% Calm Calm -- 29.12 in986.1 mb 0.00 in0.0 mm 0.00 in0.0 mm 0.00 in0.0 mm
05:50 PM 68.2°F20.1°C 44.2°F6.8°C 42% Calm Calm -- 29.12 in986.1 mb 0.00 in0.0 mm 0.00 in0.0 mm 0.00 in0.0 mm
06:00 PM 67.8°F19.9°C 44.5°F6.9°C 43% Calm Calm -- 29.12 in986.1 mb 0.00 in0.0 mm 0.00 in0.0 mm 0.00 in0.0 mm
06:10 PM 67.5°F19.7°C 44.2°F6.8°C 43% Calm Calm -- 29.12 in986.1 mb 0.00 in0.0 mm 0.00 in0.0 mm 0.00 in0.0 mm
06:20 PM 66.9°F19.4°C 44.3°F6.8°C 44% Calm Calm -- 29.12 in986.1 mb 0.00 in0.0 mm 0.00 in0.0 mm 0.00 in0.0 mm
06:30 PM 66.2°F19.0°C 44.2°F6.8°C 45% Calm Calm -- 29.12 in986.1 mb 0.00 in0.0 mm 0.00 in0.0 mm 0.00 in0.0 mm
06:40 PM 64.9°F18.3°C 44.8°F7.1°C 48% Calm Calm -- 29.12 in986.1 mb 0.00 in0.0 mm 0.00 in0.0 mm 0.00 in0.0 mm
06:50 PM 63.9°F17.7°C 45.9°F7.7°C 52% Calm Calm -- 29.12 in986.1 mb 0.00 in0.0 mm 0.00 in0.0 mm 0.00 in0.0 mm
07:00 PM 63.0°F17.2°C 46.0°F7.8°C 54% Calm Calm -- 29.15 in987.1 mb 0.00 in0.0 mm 0.00 in0.0 mm 0.00 in0.0 mm
07:10 PM 62.4°F16.9°C 46.5°F8.1°C 56% Calm Calm -- 29.15 in987.1 mb 0.00 in0.0 mm 0.00 in0.0 mm 0.00 in0.0 mm
07:20 PM 61.9°F16.6°C 46.9°F8.3°C 58% Calm Calm -- 29.15 in987.1 mb 0.00 in0.0 mm 0.00 in0.0 mm 0.00 in0.0 mm
07:30 PM 61.3°F16.3°C 46.9°F8.3°C 59% Calm Calm -- 29.15 in987.1 mb 0.00 in0.0 mm 0.00 in0.0 mm 0.00 in0.0 mm
07:40 PM 61.0°F16.1°C 47.0°F8.3°C 60% Calm Calm -- 29.15 in987.1 mb 0.00 in0.0 mm 0.00 in0.0 mm 0.00 in0.0 mm
07:50 PM 60.6°F15.9°C 47.1°F8.4°C 61% Calm Calm -- 29.15 in987.1 mb 0.00 in0.0 mm 0.00 in0.0 mm 0.00 in0.0 mm
08:00 PM 60.3°F15.7°C 47.6°F8.7°C 63% Calm Calm -- 29.12 in986.1 mb 0.00 in0.0 mm 0.00 in0.0 mm 0.00 in0.0 mm
08:10 PM 59.7°F15.4°C 47.5°F8.6°C 64% Calm Calm -- 29.12 in986.1 mb 0.00 in0.0 mm 0.00 in0.0 mm 0.00 in0.0 mm
08:20 PM 59.4°F15.2°C 47.6°F8.7°C 65% Calm Calm -- 29.12 in986.1 mb 0.00 in0.0 mm 0.00 in0.0 mm 0.00 in0.0 mm
08:30 PM 58.8°F14.9°C 48.7°F9.3°C 69% Calm Calm -- 29.15 in987.1 mb 0.00 in0.0 mm 0.00 in0.0 mm 0.00 in0.0 mm
08:40 PM 58.5°F14.7°C 47.9°F8.8°C 68% Calm Calm -- 29.15 in987.1 mb 0.00 in0.0 mm 0.00 in0.0 mm 0.00 in0.0 mm
08:50 PM 58.3°F14.6°C 48.2°F9.0°C 69% Calm Calm -- 29.15 in987.1 mb 0.00 in0.0 mm 0.00 in0.0 mm 0.00 in0.0 mm
09:00 PM 57.9°F14.4°C 47.8°F8.8°C 69% Calm Calm -- 29.15 in987.1 mb 0.00 in0.0 mm 0.00 in0.0 mm 0.00 in0.0 mm
09:10 PM 57.7°F14.3°C 48.0°F8.9°C 70% Calm Calm -- 29.15 in987.1 mb 0.00 in0.0 mm 0.00 in0.0 mm 0.00 in0.0 mm
09:20 PM 57.2°F14.0°C 47.9°F8.8°C 71% Calm Calm -- 29.15 in987.1 mb 0.00 in0.0 mm 0.00 in0.0 mm 0.00 in0.0 mm
09:30 PM 57.0°F13.9°C 48.1°F8.9°C 72% Calm Calm -- 29.18 in988.1 mb 0.00 in0.0 mm 0.00 in0.0 mm 0.00 in0.0 mm
09:40 PM 56.8°F13.8°C 47.9°F8.8°C 72% Calm Calm -- 29.18 in988.1 mb 0.00 in0.0 mm 0.00 in0.0 mm 0.00 in0.0 mm
09:50 PM 56.7°F13.7°C 48.1°F8.9°C 73% Calm Calm -- 29.18 in988.1 mb 0.00 in0.0 mm 0.00 in0.0 mm 0.00 in0.0 mm
10:00 PM 56.5°F13.6°C 47.9°F8.8°C 73% Calm Calm -- 29.18 in988.1 mb 0.00 in0.0 mm 0.00 in0.0 mm 0.00 in0.0 mm
10:10 PM 56.3°F13.5°C 47.8°F8.8°C 73% Calm Calm -- 29.18 in988.1 mb 0.00 in0.0 mm 0.00 in0.0 mm 0.00 in0.0 mm
10:20 PM 56.3°F13.5°C 48.1°F8.9°C 74% Calm Calm -- 29.18 in988.1 mb 0.00 in0.0 mm 0.00 in0.0 mm 0.00 in0.0 mm
10:30 PM 56.3°F13.5°C 48.1°F8.9°C 74% Calm Calm -- 29.18 in988.1 mb 0.00 in0.0 mm 0.00 in0.0 mm 0.00 in0.0 mm
10:40 PM 56.1°F13.4°C 48.3°F9.1°C 75% Calm Calm -- 29.18 in988.1 mb 0.00 in0.0 mm 0.00 in0.0 mm 0.00 in0.0 mm
10:50 PM 56.1°F13.4°C 48.3°F9.1°C 75% Calm Calm -- 29.18 in988.1 mb 0.00 in0.0 mm 0.00 in0.0 mm 0.00 in0.0 mm
11:00 PM 56.3°F13.5°C 48.8°F9.3°C 76% Calm Calm -- 29.18 in988.1 mb 0.00 in0.0 mm 0.00 in0.0 mm 0.00 in0.0 mm
11:10 PM 56.5°F13.6°C 49.0°F9.4°C 76% Calm Calm -- 29.18 in988.1 mb 0.00 in0.0 mm 0.00 in0.0 mm 0.00 in0.0 mm
11:20 PM 56.5°F13.6°C 49.0°F9.4°C 76% Calm Calm -- 29.18 in988.1 mb 0.00 in0.0 mm 0.00 in0.0 mm 0.00 in0.0 mm
11:30 PM 56.5°F13.6°C 49.0°F9.4°C 76% Calm Calm -- 29.18 in988.1 mb 0.00 in0.0 mm 0.00 in0.0 mm 0.00 in0.0 mm
11:40 PM 56.3°F13.5°C 48.5°F9.2°C 75% Calm Calm -- 29.18 in988.1 mb 0.00 in0.0 mm 0.00 in0.0 mm 0.00 in0.0 mm
11:50 PM 56.3°F13.5°C 48.8°F9.3°C 76% Calm Calm -- 29.18 in988.1 mb 0.00 in0.0 mm 0.00 in0.0 mm 0.00 in0.0 mm